createdAt,value
2022-09-14T00:01:26.280Z,4.97
2022-09-14T00:03:57.478Z,4.03
2022-09-14T00:06:24.454Z,4.30
2022-09-14T00:08:52.786Z,4.83
2022-09-14T00:11:20.236Z,4.80
2022-09-14T00:13:48.004Z,5.80
2022-09-14T00:16:21.047Z,5.23
2022-09-14T00:19:00.739Z,4.97
2022-09-14T00:21:29.222Z,4.70
2022-09-14T00:23:55.881Z,4.60
2022-09-14T00:26:23.431Z,4.87
2022-09-14T00:28:54.383Z,4.87
2022-09-14T00:31:21.884Z,4.37
2022-09-14T00:33:50.363Z,4.87
2022-09-14T00:36:23.247Z,5.13
2022-09-14T00:38:50.433Z,4.73
2022-09-14T00:41:21.562Z,5.23
2022-09-14T00:43:52.105Z,4.93
2022-09-14T00:46:18.853Z,4.83
2022-09-14T00:48:45.681Z,5.20
2022-09-14T00:51:12.781Z,4.80
2022-09-14T00:53:39.723Z,4.90
2022-09-14T00:56:06.818Z,5.10
2022-09-14T00:58:33.523Z,6.90
2022-09-14T01:01:01.626Z,5.63
2022-09-14T01:03:28.722Z,5.60
2022-09-14T01:06:07.975Z,6.03
2022-09-14T01:08:50.201Z,5.07
2022-09-14T01:11:50.936Z,5.30
2022-09-14T01:14:18.593Z,5.37
2022-09-14T01:16:45.284Z,5.67
2022-09-14T01:19:30.335Z,5.40
2022-09-14T01:22:06.285Z,6.37
2022-09-14T01:25:01.621Z,5.83
2022-09-14T01:27:34.144Z,5.97
2022-09-14T01:30:12.070Z,5.60
2022-09-14T01:32:57.148Z,5.57
2022-09-14T01:35:35.549Z,5.80
2022-09-14T01:38:10.988Z,5.40
2022-09-14T01:40:44.963Z,5.10
2022-09-14T01:43:21.210Z,5.93
2022-09-14T01:45:51.300Z,5.80
2022-09-14T01:48:24.555Z,5.90
2022-09-14T01:50:55.039Z,5.87
2022-09-14T01:53:39.004Z,5.10
2022-09-14T01:56:08.176Z,5.43
2022-09-14T01:58:56.103Z,6.33
2022-09-14T02:01:29.985Z,6.70
2022-09-14T02:04:05.964Z,6.70
2022-09-14T02:06:39.013Z,6.97
2022-09-14T02:09:10.288Z,6.53
2022-09-14T02:11:38.076Z,7.60
2022-09-14T02:14:05.813Z,6.80
2022-09-14T02:16:33.120Z,6.93
2022-09-14T02:19:01.623Z,6.10
2022-09-14T02:21:33.165Z,6.63
2022-09-14T02:24:00.618Z,6.10
2022-09-14T02:26:28.558Z,7.00
2022-09-14T02:28:56.561Z,6.43
2022-09-14T02:31:42.164Z,6.73
2022-09-14T02:34:13.294Z,7.03
2022-09-14T02:37:11.149Z,7.40
2022-09-14T02:40:19.815Z,7.00
2022-09-14T02:42:59.159Z,6.20
2022-09-14T02:45:39.174Z,7.67
2022-09-14T02:48:43.422Z,7.50
2022-09-14T02:51:38.095Z,7.23
2022-09-14T02:54:34.986Z,6.20
2022-09-14T02:57:03.941Z,7.10
2022-09-14T02:59:30.913Z,7.10
2022-09-14T03:01:59.908Z,6.73
2022-09-14T03:04:27.094Z,7.13
2022-09-14T03:06:53.951Z,6.70
2022-09-14T03:09:20.618Z,7.23
2022-09-14T03:11:47.270Z,8.50
2022-09-14T03:14:13.984Z,7.40
2022-09-14T03:16:40.759Z,8.10
2022-09-14T03:19:07.587Z,8.20
2022-09-14T03:21:34.333Z,9.07
2022-09-14T03:24:00.991Z,8.53
2022-09-14T03:26:29.115Z,9.30
2022-09-14T03:28:59.264Z,8.63
2022-09-14T03:31:26.565Z,9.77
2022-09-14T03:33:58.474Z,9.33
2022-09-14T03:36:27.289Z,9.10
2022-09-14T03:38:55.976Z,9.50
2022-09-14T03:41:23.996Z,9.37
2022-09-14T03:43:51.263Z,9.90
2022-09-14T03:46:21.502Z,10.97
2022-09-14T03:48:49.032Z,9.30
2022-09-14T03:51:16.391Z,10.77
2022-09-14T03:53:45.118Z,11.00
2022-09-14T03:56:17.501Z,9.77
2022-09-14T03:58:45.825Z,10.30
2022-09-14T04:01:15.567Z,11.13
2022-09-14T04:03:42.784Z,9.47
2022-09-14T04:06:10.009Z,10.00
2022-09-14T04:08:38.241Z,9.47
2022-09-14T04:11:21.182Z,10.03
2022-09-14T04:13:48.385Z,10.70
2022-09-14T04:16:16.709Z,10.87
2022-09-14T04:18:44.307Z,10.70
2022-09-14T04:21:14.800Z,11.10
2022-09-14T04:24:10.262Z,11.33
2022-09-14T04:26:29.473Z,6.00
2022-09-14T04:28:57.097Z,9.30
2022-09-14T04:31:24.868Z,10.80
2022-09-14T04:33:51.965Z,11.07
2022-09-14T04:36:22.413Z,10.80
2022-09-14T04:38:52.468Z,12.77
2022-09-14T04:41:20.985Z,10.43
2022-09-14T04:43:50.519Z,11.33
2022-09-14T04:46:23.113Z,12.03
2022-09-14T04:48:50.513Z,11.67
2022-09-14T04:51:23.364Z,12.07
2022-09-14T04:53:53.602Z,11.13
2022-09-14T04:56:24.234Z,10.87
2022-09-14T04:58:53.541Z,11.63
2022-09-14T05:01:23.045Z,11.27
2022-09-14T05:03:50.693Z,11.37
2022-09-14T05:06:26.068Z,11.97
2022-09-14T05:08:54.258Z,10.57
2022-09-14T05:11:23.487Z,11.00
2022-09-14T05:13:50.978Z,12.00
2022-09-14T05:16:19.035Z,12.23
2022-09-14T05:18:46.489Z,11.70
2022-09-14T05:21:16.000Z,10.40
2022-09-14T05:23:42.681Z,10.27
2022-09-14T05:26:09.426Z,10.73
2022-09-14T05:28:36.566Z,10.50
2022-09-14T05:31:13.166Z,9.93
2022-09-14T05:33:40.084Z,12.23
2022-09-14T05:36:08.240Z,9.70
2022-09-14T05:38:37.173Z,11.23
2022-09-14T05:41:05.168Z,11.43
2022-09-14T05:43:32.395Z,10.63
2022-09-14T05:46:04.019Z,13.03
2022-09-14T05:48:32.209Z,11.10
2022-09-14T05:51:03.062Z,12.20
2022-09-14T05:53:30.677Z,12.20
2022-09-14T05:56:04.411Z,11.10
2022-09-14T05:58:31.638Z,12.00
2022-09-14T06:00:58.365Z,11.80
2022-09-14T06:03:25.317Z,11.37
2022-09-14T06:05:54.797Z,10.20
2022-09-14T06:08:21.945Z,10.60
2022-09-14T06:10:48.839Z,10.83
2022-09-14T06:13:15.929Z,11.97
2022-09-14T06:15:42.744Z,11.63
2022-09-14T06:18:09.403Z,12.30
2022-09-14T06:20:36.079Z,10.77
2022-09-14T06:23:02.763Z,11.10
2022-09-14T06:25:29.423Z,10.30
2022-09-14T06:27:56.110Z,10.80
2022-09-14T06:30:22.920Z,12.10
2022-09-14T06:32:49.739Z,11.13
2022-09-14T06:35:16.511Z,12.73
2022-09-14T06:37:43.208Z,11.60
2022-09-14T06:40:10.639Z,10.20
2022-09-14T06:42:37.345Z,11.20
2022-09-14T06:45:04.421Z,11.90
2022-09-14T06:47:34.660Z,11.20
2022-09-14T06:50:01.397Z,10.97
2022-09-14T06:52:33.485Z,10.43
2022-09-14T06:55:00.461Z,10.90
2022-09-14T06:57:27.115Z,11.90
2022-09-14T06:59:53.767Z,11.80
2022-09-14T07:02:20.503Z,11.10
2022-09-14T07:04:47.193Z,12.37
2022-09-14T07:07:15.745Z,11.83
2022-09-14T07:09:42.500Z,11.67
2022-09-14T07:12:09.786Z,10.93
2022-09-14T07:14:36.821Z,11.07
2022-09-14T07:17:03.716Z,12.10
2022-09-14T07:19:30.356Z,11.00
2022-09-14T07:21:57.150Z,11.00
2022-09-14T07:24:23.808Z,11.80
2022-09-14T07:26:50.465Z,10.30
2022-09-14T07:29:20.035Z,10.40
2022-09-14T07:31:49.747Z,11.40
2022-09-14T07:34:16.794Z,11.13
2022-09-14T07:36:44.048Z,11.50
2022-09-14T07:39:13.326Z,11.80
2022-09-14T07:41:40.621Z,10.97
2022-09-14T07:44:08.386Z,10.93
2022-09-14T07:46:40.993Z,11.77
2022-09-14T07:49:09.161Z,8.80
2022-09-14T07:51:37.173Z,11.30
2022-09-14T07:54:05.884Z,10.77
2022-09-14T07:56:34.105Z,10.80
2022-09-14T07:59:23.881Z,11.10
2022-09-14T08:01:49.637Z,10.37
2022-09-14T08:04:16.436Z,7.80
2022-09-14T08:06:43.154Z,9.70
2022-09-14T08:09:09.907Z,10.50
2022-09-14T08:11:38.101Z,9.50
2022-09-14T08:14:11.943Z,11.07
2022-09-14T08:16:40.386Z,10.40
2022-09-14T08:19:13.426Z,11.40
2022-09-14T08:21:44.294Z,11.27
2022-09-14T08:24:14.741Z,9.10
2022-09-14T08:26:41.482Z,5.70
2022-09-14T08:29:08.159Z,7.80
2022-09-14T08:31:39.131Z,7.13
2022-09-14T08:34:07.124Z,7.20
2022-09-14T08:36:39.463Z,5.63
2022-09-14T08:39:09.354Z,5.40
2022-09-14T08:41:44.925Z,6.33
2022-09-14T08:44:11.542Z,5.93
2022-09-14T08:46:47.260Z,4.60
2022-09-14T08:49:21.608Z,6.30
2022-09-14T08:51:50.215Z,6.50
2022-09-14T08:54:16.942Z,6.10
2022-09-14T08:56:54.914Z,6.00
2022-09-14T09:00:02.296Z,5.03
2022-09-14T09:02:47.628Z,4.93
2022-09-14T09:05:51.689Z,3.93
2022-09-14T09:08:43.760Z,4.80
2022-09-14T09:11:17.811Z,5.83
2022-09-14T09:13:46.842Z,5.77
2022-09-14T09:16:19.888Z,4.97
2022-09-14T09:18:50.370Z,4.40
2022-09-14T09:21:21.141Z,4.57
2022-09-14T09:23:48.145Z,5.00
2022-09-14T09:26:32.188Z,4.60
2022-09-14T09:29:01.598Z,4.57
2022-09-14T09:31:33.427Z,4.50
2022-09-14T09:34:01.534Z,3.50
2022-09-14T09:36:35.640Z,3.27
2022-09-14T09:39:05.269Z,3.63
2022-09-14T09:41:53.119Z,3.83
2022-09-14T09:44:19.792Z,3.87
2022-09-14T09:46:55.882Z,3.63
2022-09-14T09:49:33.157Z,3.97
2022-09-14T09:52:17.013Z,3.50
2022-09-14T09:54:51.390Z,3.70
2022-09-14T09:57:39.032Z,4.47
2022-09-14T10:00:20.047Z,3.60
2022-09-14T10:02:47.433Z,3.27
2022-09-14T10:05:14.132Z,2.70
2022-09-14T10:07:49.522Z,3.27
2022-09-14T10:10:19.383Z,3.43
2022-09-14T10:12:55.448Z,3.27
2022-09-14T10:15:28.839Z,2.93
2022-09-14T10:18:14.076Z,3.53
2022-09-14T10:20:51.573Z,3.37
2022-09-14T10:23:18.315Z,2.90
2022-09-14T10:25:46.266Z,3.37
2022-09-14T10:28:28.644Z,2.53
2022-09-14T10:31:05.064Z,2.10
2022-09-14T10:33:33.025Z,3.17
2022-09-14T10:36:19.322Z,2.77
2022-09-14T10:38:58.503Z,3.07
2022-09-14T10:41:31.023Z,2.13
2022-09-14T10:44:32.918Z,2.33
2022-09-14T10:47:35.792Z,2.50
2022-09-14T10:50:24.332Z,3.00
2022-09-14T10:53:07.819Z,3.07
2022-09-14T10:55:34.531Z,3.00
2022-09-14T10:58:17.315Z,3.30
2022-09-14T11:00:55.681Z,4.47
2022-09-14T11:03:30.146Z,3.80
2022-09-14T11:06:25.457Z,3.07
2022-09-14T11:09:05.325Z,5.00
2022-09-14T11:11:31.956Z,4.13
2022-09-14T11:14:07.505Z,5.20
2022-09-14T11:16:52.738Z,5.00
2022-09-14T11:19:35.767Z,5.63
2022-09-14T11:22:28.542Z,4.47
2022-09-14T11:25:09.997Z,4.67
2022-09-14T11:27:46.049Z,5.20
2022-09-14T11:30:19.473Z,4.50
2022-09-14T11:32:57.846Z,5.30
2022-09-14T11:35:29.163Z,5.40
2022-09-14T11:38:08.778Z,4.60
2022-09-14T11:41:00.214Z,5.43
2022-09-14T11:43:41.127Z,6.00
2022-09-14T11:46:12.679Z,5.40
2022-09-14T11:49:12.773Z,6.00
2022-09-14T11:51:47.163Z,6.20
2022-09-14T11:54:17.231Z,6.00
2022-09-14T11:56:51.651Z,5.13
2022-09-14T11:59:34.977Z,6.57
2022-09-14T12:02:23.752Z,6.03
2022-09-14T12:05:08.282Z,5.30
2022-09-14T12:07:46.667Z,5.80
2022-09-14T12:10:16.689Z,6.80
2022-09-14T12:13:07.192Z,5.70
2022-09-14T12:15:40.717Z,6.20
2022-09-14T12:18:07.514Z,5.80
2022-09-14T12:21:02.765Z,5.70
2022-09-14T12:23:39.679Z,5.87
2022-09-14T12:26:06.402Z,5.70
2022-09-14T12:28:38.867Z,5.67
2022-09-14T12:31:05.603Z,5.67
2022-09-14T12:33:32.374Z,5.93
2022-09-14T12:36:02.887Z,6.60
2022-09-14T12:38:29.518Z,6.27
2022-09-14T12:40:57.185Z,5.80
2022-09-14T12:43:32.998Z,6.03
2022-09-14T12:46:08.652Z,5.73
2022-09-14T12:48:47.735Z,6.60
2022-09-14T12:51:32.585Z,6.53
2022-09-14T12:54:02.209Z,6.27
2022-09-14T12:56:35.308Z,7.00
2022-09-14T12:59:45.398Z,6.37
2022-09-14T13:02:37.115Z,7.17
2022-09-14T13:05:08.038Z,6.07
2022-09-14T13:07:38.794Z,5.80
2022-09-14T13:10:07.157Z,6.50
2022-09-14T13:12:33.777Z,6.23
2022-09-14T13:15:07.473Z,5.53
2022-09-14T13:17:34.184Z,6.60
2022-09-14T13:20:15.597Z,6.20
2022-09-14T13:22:42.872Z,5.83
2022-09-14T13:25:36.262Z,6.10
2022-09-14T13:28:13.305Z,6.43
2022-09-14T13:30:43.342Z,5.77
2022-09-14T13:33:17.466Z,6.30
2022-09-14T13:35:50.713Z,6.40
2022-09-14T13:38:27.037Z,6.53
2022-09-14T13:40:56.402Z,6.80
2022-09-14T13:43:23.410Z,6.93
2022-09-14T13:45:51.560Z,6.40
2022-09-14T13:48:20.798Z,6.10
2022-09-14T13:50:50.474Z,6.80
2022-09-14T13:53:36.515Z,7.00
2022-09-14T14:00:23.372Z,7.30
2022-09-14T14:02:59.056Z,7.53
2022-09-14T14:05:32.029Z,8.40
2022-09-14T14:08:00.899Z,8.60
2022-09-14T14:10:38.698Z,9.70
2022-09-14T14:15:43.902Z,9.90
2022-09-14T14:18:30.747Z,9.40
2022-09-14T14:21:06.445Z,9.80
2022-09-14T14:23:33.199Z,12.83
2022-09-14T14:26:17.397Z,12.63
2022-09-14T14:28:50.197Z,12.30
2022-09-14T14:31:21.016Z,13.57
2022-09-14T14:33:50.960Z,12.53
2022-09-14T14:36:19.305Z,12.07
2022-09-14T14:38:47.868Z,12.00
2022-09-14T14:41:17.144Z,12.40
2022-09-14T14:43:46.767Z,11.60
2022-09-14T14:46:14.819Z,12.67
2022-09-14T14:48:42.375Z,12.20
2022-09-14T14:51:15.237Z,14.10
2022-09-14T14:53:42.713Z,12.47
2022-09-14T14:56:13.317Z,12.43
2022-09-14T14:58:47.617Z,12.77
2022-09-14T15:01:14.509Z,13.77
2022-09-14T15:03:41.172Z,12.87
2022-09-14T15:06:14.319Z,12.87
2022-09-14T15:08:41.138Z,13.47
2022-09-14T15:11:18.257Z,12.83
2022-09-14T15:13:48.698Z,12.77
2022-09-14T15:16:16.197Z,12.20
2022-09-14T15:18:43.024Z,8.70
2022-09-14T15:21:10.150Z,4.57
2022-09-14T15:23:37.173Z,3.40
2022-09-14T15:26:04.007Z,3.30
2022-09-14T15:28:30.801Z,3.47
2022-09-14T15:30:58.270Z,3.30
2022-09-14T15:33:24.962Z,2.00
2022-09-14T15:35:56.548Z,1.70
2022-09-14T15:38:24.025Z,2.17
2022-09-14T15:40:50.700Z,2.33
2022-09-14T15:43:17.702Z,1.87
2022-09-14T15:45:44.433Z,1.90
2022-09-14T15:48:16.277Z,2.00
2022-09-14T15:50:44.585Z,2.03
2022-09-14T15:53:12.956Z,2.20
2022-09-14T15:55:44.494Z,2.40
2022-09-14T15:58:12.045Z,2.10
2022-09-14T16:00:43.086Z,2.43
2022-09-14T16:03:10.108Z,2.13
2022-09-14T16:05:40.158Z,2.30
2022-09-14T16:08:07.406Z,2.00
2022-09-14T16:10:34.631Z,2.27
2022-09-14T16:13:01.380Z,2.30
2022-09-14T16:15:28.103Z,2.10
2022-09-14T16:17:55.876Z,3.13
2022-09-14T16:20:22.829Z,2.47
2022-09-14T16:22:50.024Z,1.83
2022-09-14T16:25:17.109Z,2.10
2022-09-14T16:27:44.269Z,2.97
2022-09-14T16:30:11.388Z,1.80
2022-09-14T16:32:38.016Z,2.53
2022-09-14T16:35:08.075Z,2.17
2022-09-14T16:37:35.364Z,2.00
2022-09-14T16:40:03.499Z,2.00
2022-09-14T16:42:30.191Z,2.20
2022-09-14T16:44:56.846Z,2.00
2022-09-14T16:47:25.629Z,2.50
2022-09-14T16:49:52.568Z,2.23
2022-09-14T16:52:19.213Z,1.90
2022-09-14T16:54:45.853Z,1.87
2022-09-14T16:57:12.982Z,2.50
2022-09-14T16:59:39.848Z,2.37
2022-09-14T17:02:06.608Z,2.37
2022-09-14T17:04:33.385Z,1.80
2022-09-14T17:10:49.384Z,2.63
2022-09-14T17:13:16.015Z,1.70
2022-09-14T17:15:42.894Z,1.90
2022-09-14T17:18:09.739Z,2.13
2022-09-14T17:20:36.374Z,2.00
2022-09-14T17:23:03.079Z,2.50
2022-09-14T17:25:29.778Z,2.40
2022-09-14T17:27:56.408Z,2.10
2022-09-14T17:30:23.055Z,1.40
2022-09-14T17:32:49.763Z,1.97
2022-09-14T17:35:16.484Z,1.40
2022-09-14T17:37:43.122Z,1.87
2022-09-14T17:40:10.982Z,1.60
2022-09-14T17:42:37.682Z,2.30
2022-09-14T17:45:06.480Z,2.10
2022-09-14T17:47:35.216Z,1.70
2022-09-14T17:50:03.406Z,2.07
2022-09-14T17:52:31.037Z,2.27
2022-09-14T17:54:57.656Z,1.70
2022-09-14T17:57:24.402Z,1.90
2022-09-14T17:59:51.207Z,2.40
2022-09-14T18:02:17.900Z,2.30
2022-09-14T18:04:48.520Z,1.70
2022-09-14T18:07:15.443Z,2.30
2022-09-14T18:09:42.571Z,1.80
2022-09-14T18:12:10.323Z,3.20
2022-09-14T18:14:37.127Z,2.27
2022-09-14T18:17:03.899Z,1.90
2022-09-14T18:19:30.542Z,2.43
2022-09-14T18:21:57.184Z,1.90
2022-09-14T18:24:24.026Z,3.23
2022-09-14T18:26:50.862Z,2.33
2022-09-14T18:29:20.965Z,2.53
2022-09-14T18:31:47.716Z,2.23
2022-09-14T18:34:14.418Z,2.63
2022-09-14T18:36:41.191Z,2.00
2022-09-14T18:39:07.866Z,2.40
2022-09-14T18:41:34.602Z,2.57
2022-09-14T18:44:02.200Z,2.53
2022-09-14T18:46:29.535Z,2.80
2022-09-14T18:48:58.393Z,3.27
2022-09-14T18:51:26.260Z,2.60
2022-09-14T18:53:57.207Z,2.93
2022-09-14T18:56:24.397Z,3.10
2022-09-14T18:58:51.208Z,3.00
2022-09-14T19:01:18.090Z,2.90
2022-09-14T19:03:44.851Z,2.67
2022-09-14T19:06:14.612Z,2.93
2022-09-14T19:08:42.161Z,2.77
2022-09-14T19:11:15.160Z,2.87
2022-09-14T19:13:42.392Z,2.80
2022-09-14T19:16:14.982Z,2.40
2022-09-14T19:18:42.708Z,3.00
2022-09-14T19:21:23.663Z,3.07
2022-09-14T19:24:00.696Z,3.10
2022-09-14T19:26:30.274Z,2.83
2022-09-14T19:28:58.691Z,2.70
2022-09-14T19:31:25.449Z,3.37
2022-09-14T19:33:52.371Z,3.50
2022-09-14T19:36:22.543Z,4.00
2022-09-14T19:38:50.931Z,3.50
2022-09-14T19:41:19.038Z,3.40
2022-09-14T19:43:45.743Z,3.10
2022-09-14T19:46:18.270Z,3.37
2022-09-14T19:48:46.434Z,3.17
2022-09-14T19:51:22.138Z,2.53
2022-09-14T19:53:50.610Z,3.20
2022-09-14T19:56:21.328Z,3.23
2022-09-14T19:58:50.755Z,2.90
2022-09-14T20:01:19.187Z,3.73
2022-09-14T20:03:47.166Z,2.77
2022-09-14T20:06:21.068Z,2.77
2022-09-14T20:08:52.657Z,2.83
2022-09-14T20:11:23.476Z,3.03
2022-09-14T20:13:50.761Z,3.20
2022-09-14T20:16:28.209Z,2.90
2022-09-14T20:18:56.854Z,2.67
2022-09-14T20:21:25.987Z,3.20
2022-09-14T20:24:15.197Z,3.20
2022-09-14T20:26:42.800Z,2.93
2022-09-14T20:29:09.479Z,3.13
2022-09-14T20:31:36.199Z,2.77
2022-09-14T20:34:03.633Z,2.77
2022-09-14T20:36:30.718Z,3.30
2022-09-14T20:38:59.252Z,3.93
2022-09-14T20:41:31.392Z,2.63
2022-09-14T20:43:58.258Z,2.83
2022-09-14T20:46:38.635Z,2.73
2022-09-14T20:49:13.481Z,2.67
2022-09-14T20:51:41.137Z,2.67
2022-09-14T20:54:10.219Z,2.70
2022-09-14T20:56:37.102Z,2.90
2022-09-14T20:59:07.279Z,2.60
2022-09-14T21:01:38.237Z,2.43
2022-09-14T21:04:22.015Z,2.40
2022-09-14T21:06:52.521Z,3.30
2022-09-14T21:09:20.919Z,2.37
2022-09-14T21:11:47.786Z,2.50
2022-09-14T21:14:15.906Z,2.47
2022-09-14T21:16:44.310Z,2.30
2022-09-14T21:19:14.183Z,2.00
2022-09-14T21:21:41.864Z,2.60
2022-09-14T21:24:11.931Z,2.10
2022-09-14T21:26:42.559Z,2.37
2022-09-14T21:29:15.965Z,2.27
2022-09-14T21:31:43.216Z,2.60
2022-09-14T21:34:10.921Z,2.50
2022-09-14T21:36:43.434Z,2.80
2022-09-14T21:39:13.078Z,2.43
2022-09-14T21:41:41.130Z,3.00
2022-09-14T21:44:08.189Z,2.00
2022-09-14T21:46:34.993Z,2.47
2022-09-14T21:49:01.750Z,2.40
2022-09-14T21:51:30.969Z,2.00
2022-09-14T21:54:03.822Z,2.50
2022-09-14T21:56:33.420Z,3.43
2022-09-14T21:59:02.397Z,2.73
2022-09-14T22:01:30.402Z,2.20
2022-09-14T22:03:57.956Z,2.80
2022-09-14T22:06:27.353Z,2.30
2022-09-14T22:08:55.463Z,2.20
2022-09-14T22:11:29.215Z,2.40
2022-09-14T22:13:58.462Z,2.07
2022-09-14T22:16:27.208Z,2.17
2022-09-14T22:18:57.022Z,2.40
2022-09-14T22:21:27.076Z,2.17
2022-09-14T22:23:56.144Z,2.27
2022-09-14T22:26:23.985Z,2.67
2022-09-14T22:28:51.988Z,2.40
2022-09-14T22:31:20.659Z,2.60
2022-09-14T22:33:47.920Z,2.53
2022-09-14T22:36:17.489Z,2.87
2022-09-14T22:38:44.227Z,2.43
2022-09-14T22:41:19.380Z,2.57
2022-09-14T22:43:47.009Z,2.50
2022-09-14T22:46:14.841Z,2.67
2022-09-14T22:48:42.010Z,2.57
2022-09-14T22:51:12.340Z,2.47
2022-09-14T22:53:39.148Z,2.60
2022-09-14T22:56:10.156Z,2.70
2022-09-14T22:58:37.402Z,2.93
2022-09-14T23:01:10.164Z,2.70
2022-09-14T23:03:37.083Z,2.63
2022-09-14T23:06:04.320Z,2.50
2022-09-14T23:08:31.845Z,3.20
2022-09-14T23:11:03.909Z,2.60
2022-09-14T23:13:30.986Z,3.20
2022-09-14T23:15:57.689Z,2.40
2022-09-14T23:18:24.338Z,2.60
2022-09-14T23:20:50.973Z,3.07
2022-09-14T23:23:17.606Z,2.30
2022-09-14T23:25:44.338Z,2.83
2022-09-14T23:28:12.567Z,2.20
2022-09-14T23:30:39.733Z,2.40
2022-09-14T23:33:06.520Z,2.47
2022-09-14T23:35:37.010Z,2.10
2022-09-14T23:38:04.465Z,2.10
2022-09-14T23:40:31.174Z,1.97
2022-09-14T23:42:57.840Z,2.10
2022-09-14T23:45:24.469Z,1.83
2022-09-14T23:47:51.198Z,2.13
2022-09-14T23:50:17.954Z,1.83
2022-09-14T23:52:44.709Z,2.00
2022-09-14T23:55:11.352Z,2.30
2022-09-14T23:57:38.236Z,2.00
